Time;durP1;ratioP1;P1;durP2;ratioP2;P2;SDS_P1;SDS_P2;PMS_P1;PMS_P2;Temp;Humidity;BMP_temperature;BMP_pressure;BME280_temperature;BME280_humidity;BME280_pressure;Samples;Min_cycle;Max_cycle;Signal;HPM_P1;HPM_P2
2023/10/01 00:00:18;;;;;;;;;;;;;;;18.29;95.91;100876.52;106367;1265;73853;-85
2023/10/01 00:02:47;;;;;;;;;;;;;;;18.27;96.01;100877.40;106673;1262;68428;-85
2023/10/01 00:05:15;;;;;;;;;;;;;;;18.35;95.77;100880.33;105852;1265;73059;-85
2023/10/01 00:07:43;;;;;;;;;;;;;;;18.37;95.88;100878.60;105855;1264;60549;-85
2023/10/01 00:10:11;;;;;;;;;;;;;;;18.43;95.51;100877.92;105857;1264;60328;-84
2023/10/01 00:12:40;;;;;;;;;;;;;;;18.41;96.10;100878.09;105996;1261;72958;-81
2023/10/01 00:15:11;;;;;;;;;;;;;;;18.48;96.11;100877.68;105939;1262;67625;-82
2023/10/01 00:17:39;;;;;;;;;;;;;;;18.54;96.03;100875.19;105845;1263;72645;-84
2023/10/01 00:20:27;;;;;;;;;;;;;;;18.59;95.73;100876.40;105799;1264;61696;-84
2023/10/01 00:22:57;;;;;;;;;;;;;;;18.64;95.22;100877.67;105900;1264;60507;-83
2023/10/01 00:25:27;;;;;;;;;;;;;;;18.68;94.93;100873.04;105822;1262;72897;-82
2023/10/01 00:27:58;;;;;;;;;;;;;;;18.50;95.66;100873.98;105903;1265;67280;-82
2023/10/01 00:30:31;;;;;;;;;;;;;;;18.58;94.72;100872.45;106153;1263;71410;-84
2023/10/01 00:33:11;;;;;;;;;;;;;;;18.53;94.42;100873.56;106601;1264;60930;-81
2023/10/01 00:35:40;;;;;;;;;;;;;;;18.40;95.02;100874.92;106125;1264;59343;-82
2023/10/01 00:38:09;;;;;;;;;;;;;;;18.41;94.68;100873.50;105849;1261;73790;-81
2023/10/01 00:40:36;;;;;;;;;;;;;;;18.43;94.56;100873.27;106023;1264;66159;-81
2023/10/01 00:43:05;;;;;;;;;;;;;;;18.42;94.99;100867.05;105740;1260;72773;-82
2023/10/01 00:45:34;;;;;;;;;;;;;;;18.60;93.77;100868.52;105757;1262;60882;-81
2023/10/01 00:48:05;;;;;;;;;;;;;;;18.61;93.61;100861.36;105950;1260;60637;-84
2023/10/01 00:50:34;;;;;;;;;;;;;;;18.53;94.00;100860.77;105941;1264;73945;-82
2023/10/01 00:53:03;;;;;;;;;;;;;;;18.52;94.01;100859.23;105863;1260;67669;-85
2023/10/01 00:55:30;;;;;;;;;;;;;;;18.46;93.82;100855.44;105718;1267;71233;-82
2023/10/01 00:57:58;;;;;;;;;;;;;;;18.39;93.86;100851.91;105916;1261;61810;-82
2023/10/01 01:00:26;;;;;;;;;;;;;;;18.33;93.89;100851.84;105916;1260;60446;-85
2023/10/01 01:02:57;;;;;;;;;;;;;;;18.40;92.88;100850.58;105712;1262;72671;-82
2023/10/01 01:05:36;;;;;;;;;;;;;;;18.32;92.20;100848.45;106245;1264;67269;-84
2023/10/01 01:08:04;;;;;;;;;;;;;;;18.08;92.74;100851.02;105807;1264;72698;-84
2023/10/01 01:10:37;;;;;;;;;;;;;;;17.74;94.77;100850.34;105887;1263;60575;-84
2023/10/01 01:13:06;;;;;;;;;;;;;;;17.72;95.28;100844.46;105873;1264;59259;-82
2023/10/01 01:15:34;;;;;;;;;;;;;;;17.68;95.37;100844.58;105919;1262;74340;-85
2023/10/01 01:18:06;;;;;;;;;;;;;;;17.64;95.66;100847.17;105812;1262;68681;-82
2023/10/01 01:20:36;;;;;;;;;;;;;;;17.55;96.14;100842.38;105740;1262;72803;-83
2023/10/01 01:23:05;;;;;;;;;;;;;;;17.53;96.54;100840.05;105794;1262;60547;-82
2023/10/01 01:25:33;;;;;;;;;;;;;;;17.52;96.72;100840.63;105883;1265;60406;-85
2023/10/01 01:28:00;;;;;;;;;;;;;;;17.48;96.72;100839.02;105883;1265;71953;-85
2023/10/01 01:30:29;;;;;;;;;;;;;;;17.48;96.78;100840.83;105849;1261;68719;-85
2023/10/01 01:32:57;;;;;;;;;;;;;;;17.47;96.39;100838.05;105685;1262;71435;-84
2023/10/01 01:35:28;;;;;;;;;;;;;;;17.40;96.69;100838.90;105951;1264;60651;-84
2023/10/01 01:37:58;;;;;;;;;;;;;;;17.30;97.11;100833.48;105864;1262;60569;-85
2023/10/01 01:40:31;;;;;;;;;;;;;;;17.33;96.92;100833.48;105882;1263;74938;-83
2023/10/01 01:43:04;;;;;;;;;;;;;;;17.35;96.54;100830.63;105806;1260;67134;-85
2023/10/01 01:45:38;;;;;;;;;;;;;;;17.31;96.50;100829.77;105682;1261;71192;-85
2023/10/01 01:48:21;;;;;;;;;;;;;;;17.24;96.86;100829.92;105778;1264;61126;-83
2023/10/01 01:50:49;;;;;;;;;;;;;;;17.18;97.03;100827.58;105959;1264;60448;-83
2023/10/01 01:53:18;;;;;;;;;;;;;;;17.12;96.61;100830.30;106779;1262;73923;-85
2023/10/01 01:55:47;;;;;;;;;;;;;;;17.09;96.49;100824.27;107358;1265;67157;-82
2023/10/01 01:58:23;;;;;;;;;;;;;;;17.06;96.39;100823.73;107180;1264;72771;-85
2023/10/01 02:03:38;;;;;;;;;;;;;;;16.92;96.93;100822.75;105832;1264;60999;-82
2023/10/01 02:06:06;;;;;;;;;;;;;;;16.81;97.53;100821.34;105807;1264;72586;-82
2023/10/01 02:08:35;;;;;;;;;;;;;;;16.75;97.75;100817.43;105821;1264;67293;-85
2023/10/01 02:11:09;;;;;;;;;;;;;;;16.70;97.82;100819.04;105551;1264;72829;-83
2023/10/01 02:13:45;;;;;;;;;;;;;;;16.63;97.72;100819.50;105729;1266;60459;-83
2023/10/01 02:18:58;;;;;;;;;;;;;;;16.46;98.45;100843.26;105822;1265;72962;-82
2023/10/01 02:21:42;;;;;;;;;;;;;;;16.50;98.81;100842.19;105814;1263;68518;-82
2023/10/01 02:24:22;;;;;;;;;;;;;;;16.51;99.30;100841.55;105850;1265;72723;-85
2023/10/01 02:26:53;;;;;;;;;;;;;;;16.54;99.67;100845.61;105658;1266;60404;-84
2023/10/01 02:29:24;;;;;;;;;;;;;;;16.45;100.00;100844.98;105725;1261;60357;-82
2023/10/01 02:31:56;;;;;;;;;;;;;;;16.49;100.00;100845.13;105823;1266;73973;-81
2023/10/01 02:34:24;;;;;;;;;;;;;;;16.55;100.00;100845.20;105810;1264;67164;-83
2023/10/01 02:36:52;;;;;;;;;;;;;;;16.61;100.00;100841.26;105810;1264;72706;-85
2023/10/01 02:39:28;;;;;;;;;;;;;;;16.56;100.00;100840.78;106094;1260;60548;-85
2023/10/01 02:44:40;;;;;;;;;;;;;;;16.47;100.00;100836.33;105670;1264;72652;-85
2023/10/01 02:47:18;;;;;;;;;;;;;;;16.47;100.00;100836.36;105749;1262;66649;-81
2023/10/01 02:49:51;;;;;;;;;;;;;;;16.50;100.00;100837.82;106330;1262;72659;-82
2023/10/01 02:52:19;;;;;;;;;;;;;;;16.45;100.00;100832.19;105810;1264;60757;-84
2023/10/01 02:54:47;;;;;;;;;;;;;;;16.40;100.00;100828.95;105918;1262;61271;-82
2023/10/01 02:57:24;;;;;;;;;;;;;;;16.39;100.00;100827.70;105874;1261;72613;-84
2023/10/01 03:02:42;;;;;;;;;;;;;;;16.29;100.00;100820.79;106844;1261;72679;-84
2023/10/01 03:05:28;;;;;;;;;;;;;;;16.24;100.00;100817.63;105803;1261;60539;-84
2023/10/01 03:07:58;;;;;;;;;;;;;;;16.25;100.00;100821.41;105749;1261;60622;-84
2023/10/01 03:10:26;;;;;;;;;;;;;;;16.24;100.00;100816.36;105741;1261;74444;-84
2023/10/01 03:12:55;;;;;;;;;;;;;;;16.18;100.00;100811.92;105832;1261;68793;-81
2023/10/01 03:15:24;;;;;;;;;;;;;;;16.19;100.00;100809.96;105491;1261;72717;-81
2023/10/01 03:18:38;;;;;;;;;;;;;;;16.05;100.00;100809.12;105701;1265;60532;-85
2023/10/01 03:26:08;;;;;;;;;;;;;;;16.16;100.00;100811.48;105806;1261;67666;-84
2023/10/01 03:31:24;;;;;;;;;;;;;;;16.12;100.00;100815.58;105865;1265;61715;-82
2023/10/01 03:33:55;;;;;;;;;;;;;;;16.14;100.00;100805.23;105744;1266;60551;-84
2023/10/01 03:36:32;;;;;;;;;;;;;;;16.17;100.00;100806.76;105794;1265;73808;-82
2023/10/01 03:39:25;;;;;;;;;;;;;;;16.25;100.00;100809.79;105782;1266;67540;-81
2023/10/01 03:42:10;;;;;;;;;;;;;;;16.23;100.00;100809.29;105823;1266;70439;-84
2023/10/01 03:47:26;;;;;;;;;;;;;;;16.37;100.00;100803.20;105734;1261;60365;-82
2023/10/01 03:49:55;;;;;;;;;;;;;;;16.39;100.00;100808.95;105637;1261;73859;-81
2023/10/01 03:52:28;;;;;;;;;;;;;;;16.41;100.00;100806.89;105622;1264;68376;-82
2023/10/01 03:57:29;;;;;;;;;;;;;;;16.54;100.00;100806.79;106224;1264;60456;-80
2023/10/01 04:00:08;;;;;;;;;;;;;;;16.44;100.00;100810.20;107707;1261;60303;-82
2023/10/01 04:02:47;;;;;;;;;;;;;;;16.39;100.00;100811.20;105834;1265;73913;-84
2023/10/01 04:08:07;;;;;;;;;;;;;;;16.31;100.00;100807.88;105715;1261;72637;-83
2023/10/01 04:10:38;;;;;;;;;;;;;;;16.40;100.00;100805.16;105756;1263;60346;-81
2023/10/01 04:13:21;;;;;;;;;;;;;;;16.49;100.00;100804.18;105842;1267;60427;-85
2023/10/01 04:15:55;;;;;;;;;;;;;;;16.47;100.00;100802.20;105678;1264;73927;-81
2023/10/01 04:18:28;;;;;;;;;;;;;;;16.48;100.00;100799.25;105713;1265;68655;-84
2023/10/01 04:23:29;;;;;;;;;;;;;;;16.71;100.00;100801.67;105727;1262;61187;-84
2023/10/01 04:26:04;;;;;;;;;;;;;;;16.74;100.00;100801.52;105785;1261;60502;-84
2023/10/01 04:28:36;;;;;;;;;;;;;;;16.82;100.00;100806.77;105889;1263;73815;-82
2023/10/01 04:31:05;;;;;;;;;;;;;;;16.84;100.00;100819.02;105717;1267;67503;-82
2023/10/01 04:33:32;;;;;;;;;;;;;;;16.93;100.00;100801.85;105877;1265;71459;-84
2023/10/01 04:36:01;;;;;;;;;;;;;;;17.06;100.00;100800.93;105766;1266;61676;-84
2023/10/01 04:38:29;;;;;;;;;;;;;;;17.28;100.00;100803.15;105752;1264;60397;-85
2023/10/01 04:40:57;;;;;;;;;;;;;;;17.36;100.00;100805.09;105742;1266;73921;-82
2023/10/01 04:43:34;;;;;;;;;;;;;;;17.37;100.00;100795.34;105775;1261;68529;-81
2023/10/01 04:46:04;;;;;;;;;;;;;;;17.54;100.00;100793.34;106877;1262;72753;-83
2023/10/01 04:48:33;;;;;;;;;;;;;;;17.70;100.00;100795.39;106727;1261;61671;-84
2023/10/01 04:51:02;;;;;;;;;;;;;;;17.88;100.00;100793.42;105863;1266;59883;-85
2023/10/01 04:53:30;;;;;;;;;;;;;;;17.97;100.00;100791.98;106050;1266;72663;-85
2023/10/01 04:56:01;;;;;;;;;;;;;;;18.07;100.00;100787.29;106056;1261;67335;-85
2023/10/01 04:58:32;;;;;;;;;;;;;;;18.24;100.00;100786.11;105964;1260;72704;-82
2023/10/01 05:01:01;;;;;;;;;;;;;;;18.36;100.00;100786.30;105906;1264;60587;-84
2023/10/01 05:03:39;;;;;;;;;;;;;;;18.44;100.00;100785.98;106028;1265;60620;-82
2023/10/01 05:06:11;;;;;;;;;;;;;;;18.50;100.00;100784.59;105795;1267;73861;-82
2023/10/01 05:08:40;;;;;;;;;;;;;;;18.56;100.00;100788.72;106494;1260;68360;-84
2023/10/01 05:11:11;;;;;;;;;;;;;;;18.67;100.00;100785.20;106792;1264;71267;-84
2023/10/01 05:13:39;;;;;;;;;;;;;;;18.85;100.00;100789.36;105773;1266;60391;-85
2023/10/01 05:16:08;;;;;;;;;;;;;;;18.98;100.00;100787.23;106060;1265;60418;-82
2023/10/01 05:18:35;;;;;;;;;;;;;;;19.04;100.00;100783.64;106061;1265;73853;-84
2023/10/01 05:21:12;;;;;;;;;;;;;;;19.16;99.95;100779.70;105924;1264;68344;-82
2023/10/01 05:23:40;;;;;;;;;;;;;;;19.21;99.61;100782.95;105842;1265;73749;-85
2023/10/01 05:26:08;;;;;;;;;;;;;;;19.26;99.15;100785.14;105875;1262;60280;-82
2023/10/01 05:28:36;;;;;;;;;;;;;;;19.17;99.90;100776.73;105806;1265;60554;-82
2023/10/01 05:31:08;;;;;;;;;;;;;;;19.13;100.00;100774.60;106003;1260;72672;-84
2023/10/01 05:33:36;;;;;;;;;;;;;;;19.23;100.00;100775.12;105863;1261;68997;-83
2023/10/01 05:36:04;;;;;;;;;;;;;;;19.43;99.83;100774.13;106279;1264;72680;-83
2023/10/01 05:38:36;;;;;;;;;;;;;;;19.49;99.89;100778.33;105843;1262;60482;-83
2023/10/01 05:41:04;;;;;;;;;;;;;;;19.65;99.48;100775.23;105883;1265;60905;-84
2023/10/01 05:43:35;;;;;;;;;;;;;;;19.85;99.06;100778.18;105848;1265;74446;-83
2023/10/01 05:46:08;;;;;;;;;;;;;;;20.10;97.68;100776.73;105867;1265;68435;-83
2023/10/01 05:48:37;;;;;;;;;;;;;;;20.23;96.81;100775.02;106680;1265;72778;-85
2023/10/01 05:51:08;;;;;;;;;;;;;;;20.41;96.08;100776.61;105848;1265;60584;-84
2023/10/01 05:53:36;;;;;;;;;;;;;;;20.65;95.52;100780.64;105900;1266;60683;-83
2023/10/01 05:56:07;;;;;;;;;;;;;;;20.82;95.31;100779.74;105908;1260;73907;-84
2023/10/01 05:58:35;;;;;;;;;;;;;;;21.06;93.41;100781.25;105668;1265;67010;-83
2023/10/01 06:01:13;;;;;;;;;;;;;;;21.26;92.03;100776.23;106579;1260;73234;-82
2023/10/01 06:03:45;;;;;;;;;;;;;;;21.50;90.40;100774.88;105811;1264;60511;-83
2023/10/01 06:06:25;;;;;;;;;;;;;;;21.70;88.96;100780.53;105952;1265;60379;-83
2023/10/01 06:09:00;;;;;;;;;;;;;;;21.99;86.52;100780.51;105873;1261;73862;-83
2023/10/01 06:14:41;;;;;;;;;;;;;;;22.49;84.82;100777.52;105365;1270;72687;-83
2023/10/01 06:17:10;;;;;;;;;;;;;;;22.73;83.95;100779.84;106180;1263;60579;-83
2023/10/01 06:19:40;;;;;;;;;;;;;;;23.02;82.72;100781.38;105858;1264;60465;-83
2023/10/01 06:22:43;;;;;;;;;;;;;;;23.28;81.11;100775.08;105957;1264;73764;-84
2023/10/01 06:25:03;;;;;;;;;;;;;;;23.50;78.70;100780.67;105777;1266;68576;-83
2023/10/01 06:27:30;;;;;;;;;;;;;;;23.79;76.60;100782.38;105862;1264;71420;-84
2023/10/01 06:30:00;;;;;;;;;;;;;;;24.03;75.13;100783.67;105948;1264;60555;-84
2023/10/01 06:32:28;;;;;;;;;;;;;;;24.24;73.54;100778.72;105978;1261;60548;-84
2023/10/01 06:34:57;;;;;;;;;;;;;;;24.48;68.75;100778.48;105961;1264;72944;-84
2023/10/01 06:37:45;;;;;;;;;;;;;;;24.66;60.38;100777.10;106122;1264;67126;-84
2023/10/01 06:40:29;;;;;;;;;;;;;;;24.82;55.76;100775.93;106159;1264;71450;-84
2023/10/01 06:42:58;;;;;;;;;;;;;;;25.14;53.34;100769.83;106104;1263;60525;-84
2023/10/01 06:45:42;;;;;;;;;;;;;;;25.31;49.47;100771.14;105951;1260;60403;-84
2023/10/01 06:48:14;;;;;;;;;;;;;;;25.52;48.14;100769.42;105909;1265;63661;-85
2023/10/01 06:50:46;;;;;;;;;;;;;;;25.73;46.63;100768.42;106128;1263;60429;-85
2023/10/01 06:53:13;;;;;;;;;;;;;;;25.91;46.01;100772.30;105892;1261;63773;-83
2023/10/01 06:55:45;;;;;;;;;;;;;;;26.11;46.22;100774.05;105786;1260;60547;-82
2023/10/01 06:58:13;;;;;;;;;;;;;;;26.30;44.94;100770.00;105934;1263;60388;-84
2023/10/01 07:00:41;;;;;;;;;;;;;;;26.41;43.33;100769.27;105917;1264;64956;-84
2023/10/01 07:03:19;;;;;;;;;;;;;;;26.48;42.03;100772.66;106231;1260;60420;-84
2023/10/01 07:05:51;;;;;;;;;;;;;;;26.62;41.92;100774.46;105954;1267;63829;-83
2023/10/01 07:08:43;;;;;;;;;;;;;;;26.76;41.03;100772.30;105987;1263;61047;-83
2023/10/01 07:11:18;;;;;;;;;;;;;;;26.85;40.39;100772.58;106006;1261;60443;-83
2023/10/01 07:13:48;;;;;;;;;;;;;;;26.93;40.11;100771.86;106023;1266;65399;-85
2023/10/01 07:16:35;;;;;;;;;;;;;;;27.00;40.49;100771.86;106032;1264;60412;-83
2023/10/01 07:19:06;;;;;;;;;;;;;;;27.18;40.06;100773.68;106091;1263;62483;-84
2023/10/01 07:21:33;;;;;;;;;;;;;;;27.38;39.55;100777.25;106097;1263;61110;-85
2023/10/01 07:24:01;;;;;;;;;;;;;;;27.50;38.70;100779.05;106036;1260;60558;-84
2023/10/01 07:26:30;;;;;;;;;;;;;;;27.61;37.83;100778.66;105883;1264;63655;-85
2023/10/01 07:28:59;;;;;;;;;;;;;;;27.69;37.53;100777.54;106093;1266;62319;-85
2023/10/01 07:31:35;;;;;;;;;;;;;;;27.81;37.50;100773.14;106123;1264;62538;-83
2023/10/01 07:34:12;;;;;;;;;;;;;;;27.88;37.18;100777.77;106204;1266;60489;-85
2023/10/01 07:36:42;;;;;;;;;;;;;;;27.95;37.16;100776.15;106079;1261;60580;-84
2023/10/01 07:39:12;;;;;;;;;;;;;;;28.12;37.41;100769.84;105823;1263;63750;-83
2023/10/01 07:41:44;;;;;;;;;;;;;;;28.28;36.99;100774.91;106466;1265;60404;-83
2023/10/01 07:44:12;;;;;;;;;;;;;;;28.43;35.83;100777.41;105887;1267;62553;-83
2023/10/01 07:46:43;;;;;;;;;;;;;;;28.48;35.66;100776.72;106029;1264;60412;-84
2023/10/01 07:49:11;;;;;;;;;;;;;;;28.49;35.52;100774.95;106130;1267;61092;-84
2023/10/01 07:51:38;;;;;;;;;;;;;;;28.54;35.61;100777.33;105903;1260;65980;-84
2023/10/01 07:54:12;;;;;;;;;;;;;;;28.55;35.72;100778.14;106055;1260;60524;-83
2023/10/01 07:56:48;;;;;;;;;;;;;;;28.64;35.70;100778.17;106005;1263;65479;-85
2023/10/01 07:59:34;;;;;;;;;;;;;;;28.86;35.66;100780.82;106011;1260;60499;-85
2023/10/01 08:08:57;;;;;;;19.20;10.30;;;;;;;29.53;35.41;100770.96;103295;1295;599900;-86
2023/10/01 08:14:12;;;;;;;18.60;11.20;;;;;;;29.87;33.54;100773.84;105513;1271;59245;-83
2023/10/01 08:16:49;;;;;;;19.50;11.80;;;;;;;29.85;32.82;100772.95;106126;1266;62051;-85
2023/10/01 08:19:20;;;;;;;22.30;11.20;;;;;;;29.90;33.35;100770.13;105941;1265;59750;-83
2023/10/01 08:21:53;;;;;;;16.50;10.80;;;;;;;30.00;32.67;100765.69;105886;1262;224901;-84
2023/10/01 08:24:29;;;;;;;24.00;11.80;;;;;;;30.08;32.45;100770.27;106261;1262;59371;-83
2023/10/01 08:26:57;;;;;;;22.40;12.60;;;;;;;30.23;32.11;100768.39;106220;1263;59346;-84
2023/10/01 08:29:28;;;;;;;22.50;12.90;;;;;;;30.32;32.10;100768.63;107267;1257;63468;-84
2023/10/01 08:34:27;;;;;;;20.60;13.60;;;;;;;30.54;31.58;100770.95;106153;1261;63721;-84
2023/10/01 08:36:56;;;;;;;23.60;13.30;;;;;;;30.61;31.49;100768.02;106359;1261;59736;-85
2023/10/01 08:39:34;;;;;;;22.70;14.30;;;;;;;30.64;31.53;100769.31;106328;1262;59750;-84
2023/10/01 08:42:09;;;;;;;25.80;14.90;;;;;;;30.71;31.56;100769.36;106435;1258;64284;-85
2023/10/01 08:44:47;;;;;;;24.40;15.60;;;;;;;30.86;31.23;100764.80;106839;1262;59720;-85
2023/10/01 08:47:26;;;;;;;26.20;14.80;;;;;;;31.01;31.47;100760.77;106197;1262;64227;-84
2023/10/01 08:49:56;;;;;;;22.80;14.90;;;;;;;31.07;31.42;100760.80;106343;1257;59614;-85
2023/10/01 08:52:30;;;;;;;24.50;15.30;;;;;;;31.16;31.14;100757.93;106433;1262;59556;-85
2023/10/01 08:54:58;;;;;;;25.70;13.60;;;;;;;31.28;30.99;100758.34;106044;1262;63386;-85
2023/10/01 08:57:38;;;;;;;31.00;14.80;;;;;;;31.28;31.26;100756.71;107329;1256;59831;-85
2023/10/01 09:00:19;;;;;;;22.40;13.70;;;;;;;31.40;31.30;100753.09;106113;1263;62474;-85
2023/10/01 09:02:51;;;;;;;26.30;14.50;;;;;;;31.55;31.02;100748.71;106328;1258;59697;-85
2023/10/01 09:05:26;;;;;;;22.60;13.40;;;;;;;31.56;30.92;100754.10;106489;1257;59540;-85
2023/10/01 09:10:51;;;;;;;19.20;11.80;;;;;;;31.36;30.99;100758.84;106402;1254;60262;-84
2023/10/01 09:13:23;;;;;;;22.80;12.30;;;;;;;31.25;31.55;100763.83;106985;1255;63547;-83
2023/10/01 09:15:55;;;;;;;20.10;11.70;;;;;;;31.31;31.38;100765.48;106448;1257;59651;-85
2023/10/01 09:18:25;;;;;;;21.50;12.00;;;;;;;31.43;31.20;100767.36;106679;1254;59616;-83
2023/10/01 09:21:08;;;;;;;21.40;11.30;;;;;;;31.52;30.90;100768.73;106463;1260;62800;-84
2023/10/01 09:23:56;;;;;;;18.70;11.40;;;;;;;31.67;30.70;100767.23;106526;1254;68629;-84
2023/10/01 09:27:18;;;;;;;20.90;11.80;;;;;;;31.74;30.03;100766.13;106478;1255;63822;-85
2023/10/01 09:29:26;;;;;;;19.40;11.70;;;;;;;31.71;30.29;100767.04;106381;1255;59655;-84
2023/10/01 09:31:59;;;;;;;23.50;12.30;;;;;;;31.70;30.62;100770.04;106593;1254;59605;-84
2023/10/01 09:34:31;;;;;;;18.40;11.30;;;;;;;31.72;30.41;100770.18;106573;1254;64074;-86
2023/10/01 09:37:03;;;;;;;18.30;12.20;;;;;;;31.75;30.60;100769.52;106573;1256;59762;-85
2023/10/01 09:39:36;;;;;;;;;;;;;;;31.81;30.86;100774.78;106659;1257;62550;-85
2023/10/01 09:42:22;;;;;;;19.40;11.40;;;;;;;31.83;31.26;100775.17;106884;1253;59372;-85
2023/10/01 09:44:53;;;;;;;19.00;11.90;;;;;;;31.80;31.55;100775.04;107179;1256;59353;-84
2023/10/01 09:47:25;;;;;;;20.20;12.00;;;;;;;31.67;31.63;100780.80;106574;1254;62821;-84
2023/10/01 09:49:53;;;;;;;26.80;13.00;;;;;;;31.60;31.60;100783.85;106706;1254;59784;-84
2023/10/01 09:52:34;;;;;;;22.50;12.70;;;;;;;31.54;31.15;100786.64;106715;1254;62459;-85
2023/10/01 09:55:10;;;;;;;19.50;11.80;;;;;;;31.59;31.03;100785.06;106378;1259;59609;-85
2023/10/01 09:57:40;;;;;;;19.80;11.40;;;;;;;31.67;31.26;100782.98;106574;1257;59986;-84
2023/10/01 10:00:17;;;;;;;22.00;11.20;;;;;;;31.74;31.22;100779.77;106329;1253;64625;-85
2023/10/01 10:02:52;;;;;;;16.30;10.40;;;;;;;31.82;31.01;100779.45;106709;1256;59747;-84
2023/10/01 10:05:26;;;;;;;21.90;11.70;;;;;;;31.79;30.99;100780.70;106478;1254;64062;-84
2023/10/01 10:08:13;;;;;;;16.80;10.00;;;;;;;31.56;31.51;100786.62;106481;1253;59696;-84
2023/10/01 10:10:50;;;;;;;16.30;11.00;;;;;;;31.55;31.60;100785.18;106563;1258;59826;-84
2023/10/01 10:13:38;;;;;;;18.70;10.90;;;;;;;31.41;32.00;100784.07;106280;1255;64110;-84
2023/10/01 10:19:08;;;;;;;20.80;11.70;;;;;;;31.37;32.25;100786.50;106438;1257;64084;-84
2023/10/01 10:24:30;;;;;;;21.30;11.30;;;;;;;31.33;32.54;100785.96;106405;1256;59219;-85
2023/10/01 10:27:09;;;;;;;20.00;11.10;;;;;;;31.42;32.55;100785.02;106584;1254;62871;-85
2023/10/01 10:29:46;;;;;;;20.50;12.30;;;;;;;31.46;32.62;100787.20;106734;1252;59744;-84
2023/10/01 10:32:14;;;;;;;19.50;12.10;;;;;;;31.46;33.02;100786.95;106413;1257;63799;-84
2023/10/01 10:35:04;;;;;;;20.20;10.70;;;;;;;31.37;33.53;100787.23;106504;1254;59669;-84
2023/10/01 10:37:36;;;;;;;23.20;11.30;;;;;;;31.32;33.96;100787.34;106555;1253;62062;-84
2023/10/01 10:42:44;;;;;;;21.90;11.50;;;;;;;31.19;34.51;100780.58;106478;1253;59715;-84
2023/10/01 10:45:23;;;;;;;19.40;11.00;;;;;;;31.20;34.90;100778.38;107446;1253;63706;-84
2023/10/01 10:48:02;;;;;;;16.90;10.30;;;;;;;31.24;35.17;100777.87;106498;1254;59554;-83
2023/10/01 10:50:53;;;;;;;20.30;10.90;;;;;;;31.16;35.34;100772.20;106520;1251;59628;-84
2023/10/01 10:53:40;;;;;;;16.50;10.80;;;;;;;31.12;35.81;100774.81;106447;1253;63199;-83
2023/10/01 10:56:10;;;;;;;15.80;10.10;;;;;;;31.13;35.81;100775.36;106509;1259;59655;-84
2023/10/01 10:58:45;;;;;;;17.00;10.10;;;;;;;31.07;35.99;100777.58;106763;1254;63811;-84
2023/10/01 11:01:18;;;;;;;17.10;10.80;;;;;;;31.03;36.25;100769.61;106477;1252;59699;-85
2023/10/01 11:03:47;;;;;;;17.50;10.90;;;;;;;31.03;36.34;100770.02;106491;1254;59693;-84
2023/10/01 11:06:29;;;;;;;17.00;10.20;;;;;;;31.00;36.74;100770.84;106396;1254;64054;-85
2023/10/01 11:08:58;;;;;;;25.60;10.80;;;;;;;31.01;36.80;100773.58;106514;1257;60830;-84
2023/10/01 11:11:43;;;;;;;16.90;10.90;;;;;;;31.01;37.08;100769.48;106555;1254;63795;-84
2023/10/01 11:14:18;;;;;;;15.00;10.10;;;;;;;30.93;37.88;100770.41;107340;1253;59628;-85
2023/10/01 11:16:47;;;;;;;13.70;9.70;;;;;;;30.94;38.52;100772.73;106370;1255;59696;-85
2023/10/01 11:19:16;;;;;;;16.60;10.60;;;;;;;30.93;38.84;100771.95;107084;1254;64248;-85
2023/10/01 11:21:54;;;;;;;18.20;10.60;;;;;;;30.89;39.07;100771.80;106446;1254;59879;-84
2023/10/01 11:24:29;;;;;;;14.60;9.40;;;;;;;30.96;39.56;100772.89;106362;1254;63726;-84
2023/10/01 11:27:43;;;;;;;20.20;10.20;;;;;;;30.92;40.21;100774.68;106323;1254;59635;-85
2023/10/01 11:30:24;;;;;;;17.70;10.20;;;;;;;30.83;40.36;100776.26;106324;1254;59659;-84
2023/10/01 11:33:30;;;;;;;19.90;10.90;;;;;;;30.76;40.72;100774.48;106336;1255;62826;-84
2023/10/01 11:36:06;;;;;;;17.20;9.00;;;;;;;30.79;41.49;100775.05;106286;1256;59672;-84
2023/10/01 11:38:38;;;;;;;14.40;8.20;;;;;;;30.75;42.10;100777.73;106827;1257;62467;-83
2023/10/01 11:41:07;;;;;;;13.10;9.00;;;;;;;30.62;42.46;100777.38;106431;1254;59730;-84
2023/10/01 11:43:43;;;;;;;14.70;7.80;;;;;;;30.44;43.21;100772.14;106546;1257;59571;-83
2023/10/01 11:49:01;;;;;;;13.70;8.50;;;;;;;30.31;44.98;100773.79;106273;1258;59885;-84
2023/10/01 11:51:50;;;;;;;14.80;8.60;;;;;;;30.33;45.35;100773.61;106355;1254;63694;-85
2023/10/01 11:54:43;;;;;;;15.50;8.70;;;;;;;30.18;45.60;100781.60;106409;1257;59741;-84
2023/10/01 11:57:24;;;;;;;14.90;8.50;;;;;;;29.93;45.75;100782.77;106387;1253;59723;-84
2023/10/01 11:59:56;;;;;;;16.00;8.80;;;;;;;29.63;46.51;100783.56;106417;1254;62857;-85
2023/10/01 12:02:32;;;;;;;13.50;8.90;;;;;;;29.42;47.42;100791.17;106296;1254;60332;-84
2023/10/01 12:05:03;;;;;;;14.80;9.50;;;;;;;29.23;48.06;100794.05;106311;1257;62535;-83
2023/10/01 12:07:43;;;;;;;14.20;9.10;;;;;;;29.12;48.09;100797.48;106392;1257;59616;-84
2023/10/01 12:10:31;;;;;;;19.70;8.70;;;;;;;28.92;48.19;100805.83;106367;1253;59564;-84
2023/10/01 12:13:00;;;;;;;16.30;9.00;;;;;;;28.67;48.64;100807.73;106504;1257;64139;-84
2023/10/01 12:15:34;;;;;;;15.50;8.40;;;;;;;28.45;49.88;100810.49;106567;1254;59853;-83
2023/10/01 12:18:15;;;;;;;13.30;8.30;;;;;;;28.29;50.97;100811.92;106259;1257;63513;-83
2023/10/01 12:20:51;;;;;;;10.50;8.10;;;;;;;28.24;52.13;100812.45;106409;1253;59552;-84
2023/10/01 12:23:21;;;;;;;18.10;9.60;;;;;;;28.17;53.82;100814.73;106355;1253;59549;-85
2023/10/01 12:28:27;;;;;;;15.00;8.10;;;;;;;27.99;56.60;100819.27;106368;1253;67649;-84
2023/10/01 12:31:08;;;;;;;18.50;9.30;;;;;;;27.86;57.56;100824.21;106540;1254;63691;-85
2023/10/01 12:33:46;;;;;;;26.90;9.90;;;;;;;27.79;57.55;100824.92;106611;1255;60457;-84
2023/10/01 12:39:16;;;;;;;14.80;7.70;;;;;;;27.74;57.60;100830.66;106374;1253;64979;-84
2023/10/01 12:44:36;;;;;;;10.50;6.90;;;;;;;27.64;58.25;100836.27;106348;1254;63819;-85
2023/10/01 12:47:07;;;;;;;10.70;6.50;;;;;;;27.66;57.80;100839.33;106429;1257;61219;-84
2023/10/01 12:49:36;;;;;;;10.10;6.70;;;;;;;27.54;58.09;100837.70;106329;1254;61208;-84
2023/10/01 12:52:14;;;;;;;8.20;5.40;;;;;;;27.47;58.31;100836.02;106696;1253;64884;-84
2023/10/01 12:54:42;;;;;;;17.60;6.40;;;;;;;27.41;58.43;100836.77;106381;1257;60434;-84
2023/10/01 12:57:13;;;;;;;11.00;5.60;;;;;;;27.30;58.16;100841.55;106683;1256;63730;-83
2023/10/01 12:59:49;;;;;;;11.80;5.80;;;;;;;27.19;58.74;100838.27;106410;1254;60503;-84
2023/10/01 13:02:42;;;;;;;9.50;5.60;;;;;;;27.10;59.01;100838.08;106420;1257;60516;-84
2023/10/01 13:05:19;;;;;;;18.80;5.90;;;;;;;27.01;59.56;100835.33;106514;1255;63752;-84
2023/10/01 13:07:49;;;;;;;8.70;4.60;;;;;;;26.95;59.65;100841.90;107271;1252;59751;-83
2023/10/01 13:10:17;;;;;;;8.80;5.10;;;;;;;26.87;59.62;100840.20;106756;1257;62541;-84
2023/10/01 13:12:59;;;;;;;11.60;4.80;;;;;;;26.81;59.57;100838.05;106383;1257;60329;-84
2023/10/01 13:15:29;;;;;;;19.30;4.90;;;;;;;26.73;59.55;100835.54;106474;1254;60300;-84
2023/10/01 13:18:03;;;;;;;9.80;4.60;;;;;;;26.64;60.28;100839.82;106432;1253;63640;-84
2023/10/01 13:20:31;;;;;;;9.20;4.20;;;;;;;26.49;61.14;100838.79;106301;1257;60876;-85
2023/10/01 13:23:08;;;;;;;7.00;4.10;;;;;;;26.38;61.92;100835.75;106366;1257;63784;-84
2023/10/01 13:25:39;;;;;;;8.00;4.40;;;;;;;26.29;62.02;100835.30;106398;1257;60509;-84
2023/10/01 13:28:08;;;;;;;15.40;4.70;;;;;;;26.18;62.66;100834.34;106457;1253;61025;-84